This is the latest recevied weather packets stored in our database for station/object N4OGP-WX. If no packets are shown the sender has not sent any weather packets the latest 1 day(s).
| Time | Temp. | Humidity | Pressure | Rain* | Wind** | Luminosity | Snow |
|---|---|---|---|---|---|---|---|
| 1778067057 | 23.89° C | 42% | 1020.4 hPa | 0 mm | - | - | - |
| 1778066997 | 22.78° C | 92% | 1010.6 hPa | 0 mm | - | - | - |
| 1778066907 | 22.78° C | 92% | 1010.6 hPa | 0 mm | - | - | - |
| 1778066847 | 22.78° C | 92% | 1010.6 hPa | 0 mm | - | - | - |
| 1778066757 | 22.78° C | 92% | 1010.6 hPa | 0 mm | - | - | - |
| 1778066667 | 23.89° C | 42% | 1020.4 hPa | 0 mm | - | - | - |
| 1778066367 | 22.78° C | 92% | 1010.5 hPa | 0 mm | - | - | - |
| 1778066157 | 22.78° C | 91% | 1010.4 hPa | 0 mm | - | - | - |
| 1778066097 | 23.89° C | 42% | 1020.4 hPa | 0 mm | - | - | - |
| 1778066037 | 23.89° C | 42% | 1020.4 hPa | 0 mm | - | - | - |
| 1778065977 | 22.78° C | 91% | 1010.4 hPa | 0 mm | - | - | - |
| 1778065887 | 23.89° C | 42% | 1020.4 hPa | 0 mm | - | - | - |
| 1778065827 | 22.78° C | 91% | 1010.4 hPa | 0 mm | - | - | - |
| 1778065737 | 22.78° C | 91% | 1010.3 hPa | 0 mm | - | - | - |
| 1778065647 | 23.89° C | 42% | 1020.4 hPa | 0 mm | - | - | - |
| 1778065587 | 22.78° C | 91% | 1010.4 hPa | 0 mm | - | - | - |
| 1778065527 | 22.78° C | 91% | 1010.3 hPa | 0 mm | - | - | - |
| 1778065467 | 23.89° C | 42% | 1020.4 hPa | 0 mm | - | - | - |
| 1778065317 | 22.78° C | 91% | 1010.3 hPa | 0 mm | - | - | - |
| 1778065257 | 22.78° C | 91% | 1010.3 hPa | 0 mm | - | - | - |
| 1778065167 | 22.78° C | 91% | 1010.3 hPa | 0 mm | - | - | - |
| 1778065017 | 23.89° C | 42% | 1020.4 hPa | 0 mm | - | - | - |
| 1778064957 | 22.78° C | 91% | 1010.3 hPa | 0 mm | - | - | - |
| 1778064897 | 22.78° C | 91% | 1010.3 hPa | 0 mm | - | - | - |
| 1778064837 | 22.78° C | 91% | 1010.3 hPa | 0 mm | - | - | - |
* Rain latest hour (hover to see other rain measurements)
** Current wind speed in m/s (hover to see current wind gust speed)